Time;durP1;ratioP1;P1;durP2;ratioP2;P2;SDS_P1;SDS_P2;PMS_P1;PMS_P2;Temp;Humidity;BMP_temperature;BMP_pressure;BME280_temperature;BME280_humidity;BME280_pressure;Samples;Min_cycle;Max_cycle;Signal;HPM_P1;HPM_P2
2023/01/28 00:01:36;;;;;;;;;30.00;24.33;;;;;7.03;100.00;101961.03;4986117;28;45200;-85
2023/01/28 00:04:02;;;;;;;;;28.67;26.00;;;;;6.95;100.00;101951.00;4985533;28;45362;-83
2023/01/28 00:06:27;;;;;;;;;26.33;23.00;;;;;6.94;100.00;101950.91;4985207;28;45473;-84
2023/01/28 00:08:54;;;;;;;;;31.00;26.67;;;;;7.00;100.00;101959.16;4984541;28;47115;-83
2023/01/28 00:11:21;;;;;;;;;30.33;27.33;;;;;6.99;100.00;101957.34;5004002;28;45439;-84
2023/01/28 00:13:51;;;;;;;;;24.67;21.33;;;;;7.05;100.00;101962.00;4986449;28;45312;-83
2023/01/28 00:16:16;;;;;;;;;29.33;25.00;;;;;6.92;100.00;101958.78;4986429;28;45594;-85
2023/01/28 00:18:41;;;;;;;;;32.33;27.00;;;;;6.94;100.00;101950.91;5002382;28;46489;-84
2023/01/28 00:21:10;;;;;;;;;29.67;29.00;;;;;7.07;100.00;101957.69;4982735;28;45408;-85
2023/01/28 00:23:37;;;;;;;;;26.67;21.33;;;;;6.88;100.00;101943.59;4985235;28;45449;-85
2023/01/28 00:26:10;;;;;;;;;25.33;20.00;;;;;6.97;100.00;101957.28;4968913;28;45298;-85
2023/01/28 00:28:43;;;;;;;;;29.67;26.33;;;;;6.89;100.00;101947.13;4968636;28;47255;-84
2023/01/28 00:31:17;;;;;;;;;27.00;22.00;;;;;6.97;100.00;101953.72;4987103;28;45353;-84
2023/01/28 00:33:43;;;;;;;;;23.00;22.00;;;;;6.90;100.00;101943.66;4969204;28;45257;-85
2023/01/28 00:36:09;;;;;;;;;30.00;24.00;;;;;6.97;100.00;101946.69;4968575;28;45428;-85
2023/01/28 00:38:35;;;;;;;;;29.33;24.00;;;;;7.00;100.00;101952.09;4986633;28;48487;-84
2023/01/28 00:41:09;;;;;;;;;25.67;23.67;;;;;7.11;100.00;101947.34;4988340;28;45364;-84
2023/01/28 00:43:35;;;;;;;;;30.67;23.33;;;;;6.94;100.00;101938.59;5005751;28;45311;-84
2023/01/28 00:46:01;;;;;;;;;27.00;24.67;;;;;6.97;100.00;101944.03;5006948;28;45497;-84
2023/01/28 00:48:26;;;;;;;;;23.00;20.00;;;;;6.95;100.00;101945.72;5005923;28;45242;-84
2023/01/28 00:50:51;;;;;;;;;19.00;19.00;;;;;6.92;100.00;101937.63;5008186;28;45353;-84
2023/01/28 00:53:17;;;;;;;;;27.00;24.00;;;;;6.96;100.00;101936.94;4990136;28;45414;-84
2023/01/28 00:55:42;;;;;;;;;24.67;21.33;;;;;6.96;100.00;101930.75;5006277;28;45202;-83
2023/01/28 00:58:07;;;;;;;;;28.00;27.00;;;;;6.96;100.00;101936.94;5006007;28;45600;-83
2023/01/28 01:00:33;;;;;;;;;23.67;21.33;;;;;7.00;100.00;101941.53;4989037;28;45518;-84
2023/01/28 01:02:58;;;;;;;;;23.00;22.67;;;;;6.98;100.00;101942.28;4988876;28;45408;-85
2023/01/28 01:05:24;;;;;;;;;30.67;25.33;;;;;6.96;100.00;101951.91;4988730;28;45408;-84
2023/01/28 01:07:49;;;;;;;;;22.00;22.00;;;;;6.95;100.00;101945.72;5007164;28;45391;-84
2023/01/28 01:10:17;;;;;;;;;29.33;24.33;;;;;6.97;100.00;101953.72;4990662;28;45387;-85
2023/01/28 01:12:42;;;;;;;;;22.00;20.33;;;;;6.88;100.00;101935.66;4988910;28;45515;-85
2023/01/28 01:15:09;;;;;;;;;25.33;23.00;;;;;6.95;100.00;101951.00;5006192;28;45491;-85
2023/01/28 01:17:41;;;;;;;;;18.67;17.33;;;;;7.09;100.00;101961.31;4989659;28;47311;-85
2023/01/28 01:20:11;;;;;;;;;24.00;23.67;;;;;7.02;100.00;101968.06;4988312;28;45062;-85
2023/01/28 01:22:37;;;;;;;;;22.67;20.33;;;;;6.91;100.00;101962.25;5005356;28;45392;-84
2023/01/28 01:25:04;;;;;;;;;27.00;23.33;;;;;6.98;100.00;101966.09;4987627;28;45320;-84
2023/01/28 01:27:31;;;;;;;;;28.67;23.00;;;;;6.97;100.00;101965.19;4987710;28;47192;-84
2023/01/28 01:29:57;;;;;;;;;20.67;19.00;;;;;6.91;100.00;101954.34;5005940;28;45360;-83
2023/01/28 01:32:24;;;;;;;;;23.67;22.00;;;;;6.91;100.00;101964.91;4989112;28;45473;-85
2023/01/28 01:34:49;;;;;;;;;26.33;18.33;;;;;6.93;100.00;101963.25;4988798;28;45449;-85
2023/01/28 01:37:14;;;;;;;;;19.67;18.00;;;;;6.92;100.00;101966.69;4990603;28;48212;-85
2023/01/28 01:39:40;;;;;;;;;25.67;19.00;;;;;6.93;100.00;101963.25;5006525;28;45856;-84
2023/01/28 01:42:08;;;;;;;;;19.00;19.00;;;;;6.96;100.00;101967.78;4991073;28;45323;-84
2023/01/28 01:44:53;;;;;;;;;26.33;24.67;;;;;7.13;100.00;101971.22;4990298;28;45386;-84
2023/01/28 01:47:21;;;;;;;;;21.67;19.00;;;;;6.99;100.00;101976.75;5006124;28;45515;-84
2023/01/28 01:49:46;;;;;;;;;25.00;20.00;;;;;6.90;100.00;101962.19;4987091;28;45691;-85
2023/01/28 01:52:17;;;;;;;;;20.33;16.33;;;;;7.00;100.00;101975.91;5005643;28;45833;-86
2023/01/28 01:54:46;;;;;;;;;27.33;23.33;;;;;6.99;100.00;101978.50;5003983;28;45443;-85
2023/01/28 01:57:15;;;;;;;;;23.67;19.67;;;;;6.97;100.00;101965.19;5005446;28;45500;-84
2023/01/28 01:59:42;;;;;;;;;24.00;19.00;;;;;6.96;100.00;101973.06;4987965;28;45430;-84
2023/01/28 02:02:10;;;;;;;;;20.67;19.33;;;;;6.90;100.00;101967.47;4988551;28;45551;-84
2023/01/28 02:04:39;;;;;;;;;30.00;23.00;;;;;6.96;100.00;101968.66;4988788;28;45289;-83
2023/01/28 02:07:07;;;;;;;;;31.67;23.00;;;;;6.90;100.00;101962.19;4987358;28;47162;-84
2023/01/28 02:09:35;;;;;;;;;20.67;18.00;;;;;6.95;100.00;101973.91;4988008;28;45273;-85
2023/01/28 02:12:10;;;;;;;;;19.33;14.00;;;;;6.95;100.00;101951.00;5006212;28;45660;-85
2023/01/28 02:14:42;;;;;;;;;26.00;22.00;;;;;6.92;100.00;101971.09;4987607;28;45187;-85
2023/01/28 02:17:15;;;;;;;;;25.67;23.33;;;;;6.99;100.00;101974.13;5004959;28;45293;-85
2023/01/28 02:20:27;;;;;;;;;22.00;22.00;;;;;6.98;100.00;101976.69;4970415;28;45663;-85
2023/01/28 02:23:04;;;;;;;;;20.67;20.67;;;;;7.00;100.00;101972.38;4927966;28;45437;-84
2023/01/28 02:26:11;;;;;;;;;19.00;18.00;;;;;6.92;100.00;101969.34;4943662;28;45437;-83
2023/01/28 02:29:12;;;;;;;;;26.33;19.00;;;;;6.92;100.00;101972.00;4926969;28;48493;-85
2023/01/28 02:31:41;;;;;;;;;25.67;22.33;;;;;6.82;100.00;101970.63;4925053;28;45469;-84
2023/01/28 02:34:42;;;;;;;;;28.33;19.33;;;;;6.90;100.00;101962.19;4918687;28;45525;-84
2023/01/28 02:37:21;;;;;;;;;30.00;22.67;;;;;6.92;100.00;101977.28;4945260;28;45537;-84
2023/01/28 02:40:01;;;;;;;;;24.33;22.00;;;;;6.88;100.00;101972.69;4943436;28;48257;-84
2023/01/28 02:42:33;;;;;;;;;29.67;23.67;;;;;6.84;100.00;101969.81;4943648;28;45480;-84
2023/01/28 02:44:59;;;;;;;;;27.33;26.00;;;;;6.67;100.00;101964.63;4945321;28;45485;-84
2023/01/28 02:50:13;;;;;;;;;22.50;19.50;;;;;6.87;100.00;101973.53;4943350;28;45235;-84
2023/01/28 02:56:01;;;;;;;;;28.67;24.00;;;;;6.80;100.00;101971.41;4942398;28;45832;-84
2023/01/28 02:58:35;;;;;;;;;37.33;30.00;;;;;6.91;100.00;101964.91;4944982;28;45470;-84
2023/01/28 03:01:24;;;;;;;;;22.67;22.00;;;;;6.86;100.00;101968.16;4965514;28;47156;-84
2023/01/28 03:04:01;;;;;;;;;20.33;18.67;;;;;6.84;100.00;101965.44;4967129;28;45868;-84
2023/01/28 03:06:37;;;;;;;;;22.67;22.67;;;;;6.82;100.00;101964.44;4984840;28;45270;-85
2023/01/28 03:36:53;;;;;;;;;24.67;22.00;;;;;6.48;100.00;101989.19;4964903;28;45260;-84
2023/01/28 03:39:25;;;;;;;;;22.67;18.33;;;;;6.59;100.00;102006.50;4948209;28;45384;-84
2023/01/28 03:42:07;;;;;;;;;34.00;21.00;;;;;6.60;100.00;102004.78;4964660;28;45837;-84
2023/01/28 03:44:51;;;;;;;;;23.67;22.67;;;;;6.44;100.00;102000.44;4964623;28;46224;-84
2023/01/28 03:47:24;;;;;;;;;31.67;25.33;;;;;6.52;100.00;102003.47;4949836;28;45445;-84
2023/01/28 03:49:52;;;;;;;;;22.00;19.67;;;;;6.53;100.00;102007.94;4949469;28;45697;-84
2023/01/28 03:52:20;;;;;;;;;18.33;17.67;;;;;6.53;100.00;102013.22;4964338;28;45451;-84
2023/01/28 03:54:47;;;;;;;;;26.33;21.33;;;;;6.46;100.00;102013.72;4947855;28;47983;-84
2023/01/28 03:57:17;;;;;;;;;36.33;30.67;;;;;6.47;100.00;102011.19;4964358;28;45466;-85
2023/01/28 03:59:44;;;;;;;;;25.00;21.67;;;;;6.53;100.00;102008.84;4968314;28;45416;-85
2023/01/28 04:02:10;;;;;;;;;23.67;22.33;;;;;6.47;100.00;102023.50;4968251;28;45458;-85
2023/01/28 04:04:37;;;;;;;;;24.67;23.00;;;;;6.51;100.00;102010.50;4967232;28;48226;-84
2023/01/28 04:07:03;;;;;;;;;24.00;19.33;;;;;6.49;100.00;102020.09;4954451;28;45298;-85
2023/01/28 04:09:28;;;;;;;;;26.00;22.00;;;;;6.49;100.00;102016.56;4970436;28;45393;-85
2023/01/28 04:11:55;;;;;;;;;20.67;14.33;;;;;6.56;100.00;102014.31;4988774;28;45142;-84
2023/01/28 04:14:20;;;;;;;;;27.67;21.33;;;;;6.50;100.00;102029.81;4987123;28;46434;-85
2023/01/28 04:16:45;;;;;;;;;27.33;19.67;;;;;6.53;100.00;102032.63;4969224;28;45632;-83
2023/01/28 04:19:11;;;;;;;;;32.67;24.00;;;;;6.53;100.00;102035.28;4969375;28;45574;-83
2023/01/28 04:21:37;;;;;;;;;19.00;18.33;;;;;6.50;100.00;102036.84;4969875;28;45428;-84
2023/01/28 04:24:03;;;;;;;;;29.67;22.33;;;;;6.49;100.00;102024.47;4968919;28;46236;-84
2023/01/28 04:26:29;;;;;;;;;21.33;19.67;;;;;6.50;100.00;102029.81;4968147;28;45439;-85
2023/01/28 04:28:54;;;;;;;;;26.67;23.33;;;;;6.52;100.00;102028.16;4969020;28;45488;-84
2023/01/28 04:31:19;;;;;;;;;20.00;17.33;;;;;6.58;100.00;102039.09;4969769;28;45396;-84
2023/01/28 04:33:45;;;;;;;;;18.00;15.00;;;;;6.59;100.00;102035.59;4968840;28;47051;-84
2023/01/28 04:36:10;;;;;;;;;19.33;15.67;;;;;6.52;100.00;102028.16;4968607;28;46659;-84
2023/01/28 04:38:36;;;;;;;;;26.00;22.67;;;;;6.57;100.00;102037.25;4985999;28;45483;-84
2023/01/28 04:41:01;;;;;;;;;30.67;23.33;;;;;6.59;100.00;102047.91;4974610;28;45514;-84
2023/01/28 04:43:26;;;;;;;;;24.67;23.00;;;;;6.55;100.00;102048.59;4987696;28;48162;-84
2023/01/28 04:45:52;;;;;;;;;21.67;19.33;;;;;6.48;100.00;102030.56;5003852;28;45328;-84
2023/01/28 04:48:18;;;;;;;;;24.33;16.33;;;;;6.56;100.00;102034.53;5005206;28;45293;-85
2023/01/28 04:50:44;;;;;;;;;25.33;20.00;;;;;6.60;100.00;102042.72;4989236;28;45344;-85
2023/01/28 04:53:10;;;;;;;;;25.67;22.33;;;;;6.58;100.00;102054.94;4989220;28;46964;-85
2023/01/28 04:55:36;;;;;;;;;27.67;19.33;;;;;6.58;100.00;102061.94;5007331;28;45395;-84
2023/01/28 04:58:01;;;;;;;;;27.67;22.00;;;;;6.51;100.00;102042.22;4989398;28;45357;-85
2023/01/28 05:00:26;;;;;;;;;30.00;26.67;;;;;6.55;100.00;102048.59;4988854;28;45723;-85
2023/01/28 05:02:52;;;;;;;;;27.33;24.33;;;;;6.46;100.00;102027.84;4987136;28;48433;-85
2023/01/28 05:05:17;;;;;;;;;22.00;19.33;;;;;6.52;100.00;102038.72;4988123;28;45488;-85
2023/01/28 05:07:44;;;;;;;;;32.00;28.33;;;;;6.63;100.00;102051.63;4988834;28;45407;-84
2023/01/28 05:10:10;;;;;;;;;27.67;24.00;;;;;6.52;100.00;102043.13;5006230;28;45400;-84
2023/01/28 05:12:35;;;;;;;;;24.67;23.67;;;;;6.49;100.00;102049.16;5006679;28;45833;-84
2023/01/28 05:15:00;;;;;;;;;26.00;22.33;;;;;6.46;100.00;102054.28;4989117;28;45410;-84
2023/01/28 05:17:27;;;;;;;;;25.67;23.00;;;;;6.53;100.00;102045.84;4987135;28;45685;-83
2023/01/28 05:19:52;;;;;;;;;28.67;25.67;;;;;6.39;100.00;102050.41;4989569;28;45440;-85
2023/01/28 05:22:17;;;;;;;;;26.67;23.00;;;;;6.49;100.00;102053.56;5006012;28;45301;-84
2023/01/28 05:24:43;;;;;;;;;33.00;24.33;;;;;6.54;100.00;102052.03;4988098;28;45689;-84
2023/01/28 05:27:08;;;;;;;;;28.00;24.00;;;;;6.52;100.00;102054.59;5006438;28;45372;-85
2023/01/28 05:29:33;;;;;;;;;31.33;24.67;;;;;6.51;100.00;102059.81;5006495;28;45432;-84
2023/01/28 05:31:59;;;;;;;;;28.67;22.00;;;;;6.48;100.00;102057.91;5006535;28;45569;-84
2023/01/28 05:34:26;;;;;;;;;29.00;23.33;;;;;6.53;100.00;102055.53;5006474;28;45379;-84
2023/01/28 05:36:51;;;;;;;;;35.67;30.00;;;;;6.49;100.00;102062.38;4988968;28;45440;-84
2023/01/28 05:39:16;;;;;;;;;19.67;18.33;;;;;6.53;100.00;102067.00;5006110;28;45420;-85
2023/01/28 05:41:42;;;;;;;;;32.00;25.33;;;;;6.54;100.00;102063.50;4988076;28;48414;-84
2023/01/28 05:44:07;;;;;;;;;28.00;22.00;;;;;6.53;100.00;102064.34;4989325;28;45476;-83
2023/01/28 05:46:32;;;;;;;;;36.67;30.33;;;;;6.51;100.00;102062.47;5006002;28;45382;-85
2023/01/28 05:48:58;;;;;;;;;27.33;23.67;;;;;6.52;100.00;102065.16;4986945;28;45402;-84
2023/01/28 05:51:23;;;;;;;;;28.33;27.33;;;;;6.54;100.00;102068.78;4987351;28;48245;-84
2023/01/28 05:53:48;;;;;;;;;23.33;19.00;;;;;6.53;100.00;102053.78;4987737;28;45593;-83
2023/01/28 05:56:14;;;;;;;;;28.67;26.33;;;;;6.57;100.00;102063.69;5005238;28;45399;-84
2023/01/28 05:58:46;;;;;;;;;30.33;22.00;;;;;6.51;100.00;102068.66;5005756;28;45454;-84
2023/01/28 06:01:11;;;;;;;;;30.67;26.67;;;;;6.48;100.00;102068.47;4987662;28;47444;-84
2023/01/28 06:03:36;;;;;;;;;33.00;30.00;;;;;6.49;100.00;102066.75;4988119;28;45512;-85
2023/01/28 06:06:02;;;;;;;;;26.67;26.67;;;;;6.37;100.00;102052.06;4988665;28;45277;-85
2023/01/28 06:08:27;;;;;;;;;32.00;29.67;;;;;6.49;100.00;102070.31;5006183;28;45338;-84
2023/01/28 06:10:52;;;;;;;;;31.00;27.00;;;;;6.44;100.00;102074.44;5005362;28;46031;-85
2023/01/28 06:13:18;;;;;;;;;23.00;23.00;;;;;6.43;100.00;102077.03;4987345;28;45464;-85
2023/01/28 06:15:43;;;;;;;;;31.67;28.67;;;;;6.45;100.00;102076.25;4987932;28;45361;-86
2023/01/28 06:18:10;;;;;;;;;34.67;30.67;;;;;6.50;100.00;102087.97;4988908;28;45497;-85
2023/01/28 06:20:35;;;;;;;;;31.00;22.33;;;;;6.43;100.00;102085.84;4986819;28;48373;-84
2023/01/28 06:23:00;;;;;;;;;31.67;27.00;;;;;6.45;100.00;102089.47;4986877;28;45762;-85
2023/01/28 06:25:26;;;;;;;;;30.67;27.67;;;;;6.46;100.00;102091.28;5006022;28;45583;-84
2023/01/28 06:27:51;;;;;;;;;30.67;26.67;;;;;6.41;100.00;102087.50;5006179;28;45425;-84
2023/01/28 06:30:17;;;;;;;;;31.33;27.33;;;;;6.41;100.00;102087.50;4987375;28;47957;-84
2023/01/28 06:32:43;;;;;;;;;25.33;21.67;;;;;6.40;100.00;102085.66;4986371;28;45307;-84
2023/01/28 06:35:08;;;;;;;;;28.00;26.33;;;;;6.35;100.00;102077.50;5003965;28;45324;-84
2023/01/28 06:37:35;;;;;;;;;29.67;27.00;;;;;6.50;100.00;102095.88;4985916;28;45655;-84
2023/01/28 06:40:02;;;;;;;;;30.67;27.33;;;;;6.42;100.00;102099.88;5004366;28;45670;-85
2023/01/28 06:42:27;;;;;;;;;28.00;19.33;;;;;6.41;100.00;102111.28;4984179;28;45536;-85
2023/01/28 06:44:53;;;;;;;;;23.33;21.33;;;;;6.34;100.00;102101.19;5004449;28;45439;-85
2023/01/28 06:47:18;;;;;;;;;34.00;27.00;;;;;6.38;100.00;102114.69;5004209;28;45439;-85
2023/01/28 06:50:09;;;;;;;;;30.00;24.67;;;;;6.58;100.00;102117.44;4984567;28;48414;-85
2023/01/28 06:52:34;;;;;;;;;30.33;27.67;;;;;6.45;100.00;102125.56;4986552;28;45351;-85
2023/01/28 06:55:00;;;;;;;;;36.00;30.33;;;;;6.44;100.00;102110.53;5004550;28;45344;-84
2023/01/28 06:57:25;;;;;;;;;33.33;29.67;;;;;6.49;100.00;102112.59;4986137;28;45237;-84
2023/01/28 06:59:51;;;;;;;;;31.00;26.33;;;;;6.49;100.00;102109.94;5004257;28;45389;-84
2023/01/28 07:05:38;;;;;;;;;22.33;21.00;;;;;6.44;100.00;102103.50;5003797;28;45531;-84
2023/01/28 07:08:04;;;;;;;;;24.33;19.00;;;;;6.47;100.00;102114.25;4986620;28;45636;-84
2023/01/28 07:10:29;;;;;;;;;20.33;18.00;;;;;6.43;100.00;102107.00;4985371;28;47437;-85
2023/01/28 07:12:54;;;;;;;;;26.00;21.67;;;;;6.40;100.00;102110.38;4986305;28;45385;-85
2023/01/28 07:15:20;;;;;;;;;20.33;18.00;;;;;6.43;100.00;102120.19;5004258;28;45640;-83
2023/01/28 07:17:45;;;;;;;;;22.67;20.33;;;;;6.36;100.00;102105.75;4986745;28;45372;-83
2023/01/28 07:20:14;;;;;;;;;22.33;21.67;;;;;6.44;100.00;102111.44;4986321;28;47214;-84
2023/01/28 07:22:41;;;;;;;;;23.67;19.00;;;;;6.47;100.00;102131.84;4987065;28;45438;-84
2023/01/28 07:25:07;;;;;;;;;22.33;19.00;;;;;6.36;100.00;102132.19;4986609;28;45336;-84
2023/01/28 07:27:33;;;;;;;;;26.67;23.00;;;;;6.38;100.00;102134.88;4986426;28;45353;-84
2023/01/28 07:29:58;;;;;;;;;27.67;24.00;;;;;6.36;100.00;102126.91;5004331;28;45245;-84
2023/01/28 07:32:26;;;;;;;;;23.33;23.33;;;;;6.52;100.00;102138.28;5005028;28;45353;-86
2023/01/28 07:34:52;;;;;;;;;30.33;26.67;;;;;6.41;100.00;102124.50;4987604;28;45509;-84
2023/01/28 07:37:17;;;;;;;;;29.33;23.33;;;;;6.48;100.00;102141.56;4988124;28;45692;-83
2023/01/28 07:39:43;;;;;;;;;26.33;23.67;;;;;6.45;100.00;102134.41;5004431;28;45456;-84
2023/01/28 07:42:08;;;;;;;;;23.00;21.00;;;;;6.47;100.00;102143.31;5003783;28;44801;-84
2023/01/28 07:44:35;;;;;;;;;20.00;18.33;;;;;6.49;100.00;102148.69;4986876;28;45382;-84
2023/01/28 07:47:01;;;;;;;;;23.67;22.67;;;;;6.52;100.00;102155.03;5005105;28;45420;-85
2023/01/28 07:49:27;;;;;;;;;28.67;24.00;;;;;6.46;100.00;102127.38;4986804;28;47006;-85
2023/01/28 07:51:52;;;;;;;;;27.00;24.00;;;;;6.57;100.00;102145.63;4985691;28;45379;-86
2023/01/28 07:54:17;;;;;;;;;30.67;27.67;;;;;6.61;100.00;102144.94;4986642;28;45392;-85
2023/01/28 07:56:43;;;;;;;;;17.00;15.00;;;;;6.64;100.00;102138.91;5003472;28;45266;-85
2023/01/28 07:59:08;;;;;;;;;22.67;20.67;;;;;6.68;100.00;102140.00;4986223;28;48233;-85
2023/01/28 08:01:33;;;;;;;;;20.67;19.33;;;;;6.72;100.00;102149.91;4985056;28;45252;-85
2023/01/28 08:03:58;;;;;;;;;26.00;24.33;;;;;6.66;100.00;102133.72;4985015;28;45381;-85
2023/01/28 08:06:24;;;;;;;;;23.00;18.33;;;;;6.66;100.00;102141.66;5005072;28;45289;-85
2023/01/28 08:08:49;;;;;;;;;27.67;23.67;;;;;6.65;100.00;102142.50;4987410;28;47273;-85
2023/01/28 08:11:14;;;;;;;;;31.33;24.67;;;;;6.54;100.00;102137.50;5004257;28;45186;-85
2023/01/28 08:13:40;;;;;;;;;33.33;25.00;;;;;6.59;100.00;102151.91;4986862;28;45202;-85
2023/01/28 08:16:05;;;;;;;;;25.33;22.67;;;;;6.63;100.00;102146.78;4986276;28;45335;-85
2023/01/28 08:18:37;;;;;;;;;25.33;19.00;;;;;6.80;100.00;102167.06;4985111;28;48044;-86
2023/01/28 08:21:04;;;;;;;;;29.33;29.33;;;;;6.66;100.00;102173.38;5002775;28;45392;-85
2023/01/28 08:23:29;;;;;;;;;29.00;26.33;;;;;6.69;100.00;102166.50;4985392;28;45446;-85
2023/01/28 08:25:57;;;;;;;;;31.33;27.00;;;;;6.80;100.00;102172.34;5003235;28;45308;-85
2023/01/28 08:28:23;;;;;;;;;22.33;18.67;;;;;6.73;100.00;102175.53;5004076;28;45384;-84
2023/01/28 08:30:49;;;;;;;;;18.67;17.00;;;;;6.79;100.00;102179.38;4985970;28;45424;-85
2023/01/28 08:33:15;;;;;;;;;23.67;19.67;;;;;6.81;100.00;102169.81;4985827;28;45302;-83
2023/01/28 08:35:41;;;;;;;;;34.67;25.00;;;;;6.78;100.00;102177.56;4984974;28;45733;-84
2023/01/28 08:38:07;;;;;;;;;29.67;23.67;;;;;6.73;100.00;102180.81;4986253;28;46881;-83
2023/01/28 08:40:33;;;;;;;;;26.33;19.00;;;;;6.78;100.00;102185.47;5004659;28;45432;-84
2023/01/28 08:42:59;;;;;;;;;30.00;27.33;;;;;6.70;100.00;102178.00;5003033;28;44759;-84
2023/01/28 08:45:26;;;;;;;;;27.67;23.67;;;;;6.72;100.00;102193.09;4987789;28;45380;-84
2023/01/28 08:47:51;;;;;;;;;35.33;27.33;;;;;6.67;100.00;102191.06;5005695;28;45745;-84
2023/01/28 08:50:18;;;;;;;;;24.67;23.00;;;;;6.66;100.00;102183.94;4969885;28;45510;-84
2023/01/28 08:52:45;;;;;;;;;26.33;25.00;;;;;6.73;100.00;102201.97;4988159;28;45432;-84
2023/01/28 08:55:11;;;;;;;;;26.00;23.33;;;;;6.73;100.00;102201.97;4969587;28;45551;-84
2023/01/28 08:57:37;;;;;;;;;32.33;25.33;;;;;6.70;100.00;102196.50;4967865;28;47476;-84
2023/01/28 09:00:04;;;;;;;;;28.33;24.00;;;;;6.73;100.00;102189.63;4967897;28;45505;-85
2023/01/28 09:02:29;;;;;;;;;28.33;26.00;;;;;6.78;100.00;102203.09;4953242;28;45191;-85
2023/01/28 09:04:55;;;;;;;;;29.67;25.00;;;;;6.84;100.00;102214.00;4969380;28;45302;-85
2023/01/28 09:07:20;;;;;;;;;24.67;24.67;;;;;6.84;100.00;102200.78;4968692;28;47140;-85
2023/01/28 09:09:46;;;;;;;;;27.00;27.00;;;;;6.88;100.00;102201.84;4969948;28;45697;-85
2023/01/28 09:12:11;;;;;;;;;24.33;22.00;;;;;6.90;100.00;102206.38;4969412;28;45036;-85
2023/01/28 09:14:36;;;;;;;;;28.33;22.00;;;;;6.92;100.00;102210.00;4969839;28;45564;-85
2023/01/28 09:17:04;;;;;;;;;20.67;19.00;;;;;6.92;100.00;102215.31;4968271;28;48558;-85
2023/01/28 09:19:35;;;;;;;;;23.00;21.67;;;;;7.00;100.00;102213.97;4970264;28;45380;-85
2023/01/28 09:22:03;;;;;;;;;31.00;25.00;;;;;6.97;100.00;102213.81;4985076;28;45242;-85
2023/01/28 09:24:28;;;;;;;;;18.00;18.00;;;;;6.84;100.00;102210.44;4968731;28;45452;-85
2023/01/28 09:26:53;;;;;;;;;26.00;23.33;;;;;6.88;100.00;102205.41;4970437;28;47014;-85
2023/01/28 09:29:19;;;;;;;;;15.00;15.00;;;;;6.89;100.00;102227.44;4970537;28;44823;-85
2023/01/28 09:31:44;;;;;;;;;28.33;26.33;;;;;6.92;100.00;102222.34;4987197;28;45245;-84
2023/01/28 09:34:09;;;;;;;;;27.00;24.00;;;;;6.90;100.00;102224.91;4986774;28;45399;-84
2023/01/28 09:36:35;;;;;;;;;28.33;25.33;;;;;6.88;100.00;102221.25;4968352;28;47231;-85
2023/01/28 09:39:01;;;;;;;;;24.00;23.67;;;;;6.87;100.00;102208.88;4969245;28;45380;-85
2023/01/28 09:41:36;;;;;;;;;28.67;23.00;;;;;6.93;100.00;102217.13;4969246;28;45226;-85
2023/01/28 09:44:12;;;;;;;;;27.00;24.67;;;;;7.07;100.00;102224.88;4986521;28;45560;-84
2023/01/28 09:46:39;;;;;;;;;28.00;26.67;;;;;6.97;100.00;102221.75;4986020;28;45385;-85
2023/01/28 09:49:16;;;;;;;;;30.67;26.00;;;;;7.13;100.00;102223.47;4968798;28;45461;-84
2023/01/28 09:51:46;;;;;;;;;26.00;22.00;;;;;7.09;100.00;102231.16;4968043;28;45576;-85
2023/01/28 09:54:28;;;;;;;;;12.67;10.33;;;;;7.01;100.00;102221.09;4985908;28;45429;-84
2023/01/28 09:57:04;;;;;;;;;29.00;27.00;;;;;6.97;100.00;102224.41;4968722;28;47677;-85
2023/01/28 09:59:33;;;;;;;;;22.67;22.67;;;;;6.90;100.00;102232.84;4968769;28;45443;-84
2023/01/28 10:02:11;;;;;;;;;23.33;20.67;;;;;6.90;100.00;102238.13;4968918;28;45504;-85
2023/01/28 10:04:48;;;;;;;;;23.00;22.00;;;;;6.82;100.00;102234.16;4987372;28;45402;-84
2023/01/28 10:07:37;;;;;;;;;24.00;23.00;;;;;6.93;100.00;102235.66;4985231;28;46368;-85
2023/01/28 10:10:02;;;;;;;;;27.67;23.00;;;;;6.92;100.00;102239.09;4948450;28;45309;-85
2023/01/28 10:12:35;;;;;;;;;29.33;24.33;;;;;7.09;100.00;102239.09;4949035;28;44706;-84
2023/01/28 10:15:23;;;;;;;;;26.67;26.67;;;;;7.17;100.00;102243.03;4948206;28;45717;-84
2023/01/28 10:17:52;;;;;;;;;28.67;22.33;;;;;7.04;100.00;102230.00;4964907;28;45368;-84
2023/01/28 10:20:31;;;;;;;;;27.67;20.00;;;;;7.12;100.00;102239.25;4947323;28;45415;-84
2023/01/28 10:23:16;;;;;;;;;24.67;20.33;;;;;7.06;100.00;102238.94;4966449;28;45432;-85
2023/01/28 10:25:47;;;;;;;;;24.67;21.33;;;;;7.01;100.00;102247.53;4951021;28;45487;-84
2023/01/28 10:28:26;;;;;;;;;24.67;21.33;;;;;6.98;100.00;102257.94;4965634;28;46832;-84
2023/01/28 10:30:52;;;;;;;;;27.00;22.00;;;;;6.80;100.00;102256.97;4966786;28;45711;-85
2023/01/28 10:33:21;;;;;;;;;28.33;23.33;;;;;6.92;100.00;102257.63;4950356;28;45446;-85
2023/01/28 10:35:47;;;;;;;;;33.00;27.00;;;;;6.79;100.00;102257.81;4967969;28;45440;-84
2023/01/28 10:38:24;;;;;;;;;29.67;26.00;;;;;6.85;100.00;102255.50;4966147;28;45398;-85
2023/01/28 10:40:50;;;;;;;;;24.67;20.33;;;;;6.73;100.00;102254.84;4967144;28;45449;-84
2023/01/28 10:43:21;;;;;;;;;27.00;20.33;;;;;6.73;100.00;102254.84;4948953;28;45790;-84
2023/01/28 10:46:12;;;;;;;;;22.33;19.67;;;;;6.83;100.00;102267.72;4949780;28;45639;-84
2023/01/28 10:48:43;;;;;;;;;22.67;20.00;;;;;6.75;100.00;102258.47;4947633;28;47147;-83
2023/01/28 10:51:09;;;;;;;;;16.33;14.00;;;;;6.68;100.00;102272.19;4977019;28;45404;-84
2023/01/28 10:53:43;;;;;;;;;26.67;22.67;;;;;6.68;100.00;102251.03;4968059;28;45839;-83
2023/01/28 10:56:25;;;;;;;;;27.00;25.67;;;;;6.68;100.00;102265.16;4984177;28;45538;-84
2023/01/28 10:59:16;;;;;;;;;27.67;24.67;;;;;6.64;100.00;102267.53;4985453;28;46151;-84
2023/01/28 11:01:47;;;;;;;;;25.33;23.00;;;;;6.50;100.00;102270.31;4968041;28;45786;-84
2023/01/28 11:04:28;;;;;;;;;24.67;21.33;;;;;6.64;100.00;102262.25;4985299;28;45427;-84
2023/01/28 11:06:58;;;;;;;;;23.67;22.67;;;;;6.57;100.00;102248.72;4985151;28;45480;-84
2023/01/28 11:09:26;;;;;;;;;22.00;16.33;;;;;6.66;100.00;102255.31;4984185;28;47175;-85
2023/01/28 11:11:52;;;;;;;;;32.33;24.00;;;;;6.56;100.00;102264.47;4987169;28;45781;-84
2023/01/28 11:14:24;;;;;;;;;21.00;20.00;;;;;6.64;100.00;102252.59;4987683;28;45373;-84
2023/01/28 11:16:52;;;;;;;;;30.33;22.67;;;;;6.65;100.00;102253.53;4988728;28;45454;-84
2023/01/28 11:19:21;;;;;;;;;22.33;20.67;;;;;6.66;100.00;102236.81;4988406;28;45272;-84
2023/01/28 11:21:55;;;;;;;;;28.33;28.00;;;;;6.81;100.00;102246.47;4988114;28;45685;-84
2023/01/28 11:24:29;;;;;;;;;30.33;27.33;;;;;6.80;100.00;102247.28;5004786;28;45442;-83
2023/01/28 11:26:56;;;;;;;;;14.00;12.33;;;;;6.69;100.00;102248.47;4988455;28;45599;-84
2023/01/28 11:32:43;;;;;;;;;24.67;24.00;;;;;6.57;100.00;102234.59;5004570;28;45357;-86
2023/01/28 11:35:24;;;;;;;;;23.00;22.33;;;;;6.67;100.00;102238.66;4986444;28;45445;-85
2023/01/28 11:37:49;;;;;;;;;29.00;26.00;;;;;6.53;100.00;102238.78;4987008;28;45597;-85
2023/01/28 11:40:19;;;;;;;;;42.00;29.00;;;;;6.55;100.00;102238.88;4986542;28;47299;-84
2023/01/28 11:42:47;;;;;;;;;25.33;25.33;;;;;6.54;100.00;102245.88;5004438;28;45402;-84
2023/01/28 11:45:18;;;;;;;;;26.00;24.67;;;;;6.61;100.00;102234.84;4986179;28;45397;-83
2023/01/28 11:48:20;;;;;;;;;25.00;20.00;;;;;6.63;100.00;102234.03;5005128;28;45463;-84
2023/01/28 11:50:53;;;;;;;;;26.00;24.33;;;;;6.58;100.00;102233.75;4987694;28;47251;-84
2023/01/28 11:53:39;;;;;;;;;23.33;20.67;;;;;6.63;100.00;102234.03;4987047;28;45286;-84
2023/01/28 11:56:22;;;;;;;;;22.33;19.67;;;;;6.67;100.00;102243.94;4987084;28;45520;-85
2023/01/28 11:59:38;;;;;;;;;30.00;26.00;;;;;6.68;100.00;102236.06;5005671;28;45433;-84